Time;durP1;ratioP1;P1;durP2;ratioP2;P2;SDS_P1;SDS_P2;PMS_P1;PMS_P2;Temp;Humidity;BMP_temperature;BMP_pressure;BME280_temperature;BME280_humidity;BME280_pressure;Samples;Min_cycle;Max_cycle;Signal;HPM_P1;HPM_P2
2023/01/22 00:00:14;;;;;;;27.75;13.65;;;1.10;86.40;;;;;;9173184;19;20011;-68
2023/01/22 00:03:17;;;;;;;30.35;13.60;;;1.10;86.40;;;;;;9166903;19;20467;-66
2023/01/22 00:06:20;;;;;;;30.25;13.98;;;1.10;86.40;;;;;;9167594;19;20362;-67
2023/01/22 00:09:23;;;;;;;26.30;12.80;;;1.10;86.40;;;;;;9173275;19;20762;-67
2023/01/22 00:12:25;;;;;;;29.20;12.48;;;1.10;86.40;;;;;;9173195;19;20015;-67
2023/01/22 00:15:29;;;;;;;30.55;12.10;;;1.10;86.40;;;;;;9173650;19;20010;-67
2023/01/22 00:18:30;;;;;;;28.42;13.55;;;1.10;86.50;;;;;;9172716;19;20013;-67
2023/01/22 00:21:34;;;;;;;31.83;13.57;;;1.10;86.50;;;;;;9173154;19;20459;-67
2023/01/22 00:24:36;;;;;;;28.45;14.00;;;1.00;86.50;;;;;;9171851;19;20022;-67
2023/01/22 00:27:40;;;;;;;25.73;13.18;;;1.00;86.60;;;;;;9175864;19;20011;-67
2023/01/22 00:30:42;;;;;;;28.35;12.63;;;1.10;86.70;;;;;;9175254;19;20015;-68
2023/01/22 00:33:46;;;;;;;25.20;12.25;;;1.10;86.70;;;;;;9173244;19;20019;-66
2023/01/22 00:36:47;;;;;;;27.35;13.90;;;1.10;86.70;;;;;;9173952;19;20478;-67
2023/01/22 00:39:51;;;;;;;30.20;14.27;;;1.10;86.60;;;;;;9173255;19;20019;-66
2023/01/22 00:42:55;;;;;;;29.27;13.15;;;1.10;86.70;;;;;;9174593;19;20340;-66
2023/01/22 00:45:59;;;;;;;32.20;14.52;;;1.10;86.60;;;;;;9175179;19;20015;-66
2023/01/22 00:49:02;;;;;;;28.63;14.57;;;1.10;86.60;;;;;;9174464;19;20014;-66
2023/01/22 00:52:05;;;;;;;30.52;13.75;;;1.10;86.60;;;;;;9173936;19;21277;-67
2023/01/22 00:55:07;;;;;;;32.72;13.73;;;1.10;86.50;;;;;;9174600;19;20097;-67
2023/01/22 00:58:11;;;;;;;29.08;13.57;;;1.10;86.50;;;;;;9180377;19;20015;-66
2023/01/22 01:01:14;;;;;;;29.63;14.00;;;1.10;86.50;;;;;;9178321;19;20380;-66
2023/01/22 01:04:17;;;;;;;28.10;13.68;;;1.10;86.60;;;;;;9171124;19;20017;-66
2023/01/22 01:07:19;;;;;;;35.38;13.25;;;1.20;86.50;;;;;;9180665;19;20019;-66
2023/01/22 01:10:22;;;;;;;29.67;13.70;;;1.20;86.60;;;;;;9176490;19;20014;-67
2023/01/22 01:13:25;;;;;;;25.33;13.10;;;1.10;86.50;;;;;;9180654;19;20532;-66
2023/01/22 01:16:30;;;;;;;30.63;13.27;;;1.20;86.60;;;;;;9182383;19;20053;-67
2023/01/22 01:19:32;;;;;;;28.75;13.57;;;1.20;86.60;;;;;;9182935;19;20486;-67
2023/01/22 01:22:35;;;;;;;26.67;13.48;;;1.20;86.70;;;;;;9180266;19;20010;-67
2023/01/22 01:25:41;;;;;;;31.17;13.55;;;1.20;86.70;;;;;;9182368;19;20701;-66
2023/01/22 01:28:44;;;;;;;28.42;13.77;;;1.20;86.60;;;;;;9182632;19;20018;-67
2023/01/22 01:31:50;;;;;;;25.77;11.90;;;1.20;86.70;;;;;;9180218;19;20510;-65
2023/01/22 01:34:54;;;;;;;26.98;13.35;;;1.20;86.60;;;;;;9182622;19;20033;-66
2023/01/22 01:37:55;;;;;;;24.38;12.52;;;1.20;86.70;;;;;;9182877;19;20514;-66
2023/01/22 01:40:59;;;;;;;26.42;13.30;;;1.20;86.70;;;;;;9182093;19;20030;-67
2023/01/22 01:44:19;;;;;;;27.83;12.80;;;1.20;86.70;;;;;;9178618;19;20007;-68
2023/01/22 01:47:33;;;;;;;22.75;11.23;;;1.20;86.80;;;;;;9179301;19;20018;-66
2023/01/22 01:50:36;;;;;;;20.15;10.93;;;1.20;86.70;;;;;;9181220;19;20010;-67
2023/01/22 01:53:44;;;;;;;25.00;12.18;;;1.30;86.70;;;;;;9179729;19;20014;-67
2023/01/22 01:56:49;;;;;;;20.58;11.07;;;1.30;86.80;;;;;;9178188;19;20022;-67
2023/01/22 01:59:55;;;;;;;17.33;10.27;;;1.30;86.80;;;;;;9179071;19;20030;-67
2023/01/22 02:02:57;;;;;;;23.02;10.82;;;1.30;86.80;;;;;;9176276;19;20021;-67
2023/01/22 02:06:01;;;;;;;25.42;11.75;;;1.30;86.80;;;;;;9181642;19;20029;-67
2023/01/22 02:09:03;;;;;;;23.08;11.38;;;1.30;86.80;;;;;;9175898;19;20025;-67
2023/01/22 02:12:07;;;;;;;21.13;10.40;;;1.30;86.80;;;;;;9172607;19;20010;-68
2023/01/22 02:15:09;;;;;;;22.20;9.70;;;1.30;86.80;;;;;;9174189;19;20017;-67
2023/01/22 02:18:13;;;;;;;21.58;11.15;;;1.30;86.70;;;;;;9178493;19;20021;-67
2023/01/22 02:21:37;;;;;;;16.27;9.02;;;1.40;86.70;;;;;;9179925;19;20063;-67
2023/01/22 02:24:40;;;;;;;17.95;9.52;;;1.40;86.70;;;;;;9177502;19;20026;-67
2023/01/22 02:27:42;;;;;;;21.85;9.32;;;1.40;86.70;;;;;;9177971;19;20019;-67
2023/01/22 02:30:46;;;;;;;24.10;9.45;;;1.40;86.60;;;;;;9178321;19;20029;-67
2023/01/22 02:33:49;;;;;;;15.82;8.77;;;1.40;86.60;;;;;;9177889;19;20014;-67
2023/01/22 02:36:53;;;;;;;16.48;9.05;;;1.40;86.70;;;;;;9180470;19;20383;-67
2023/01/22 02:39:55;;;;;;;12.02;7.60;;;1.40;86.90;;;;;;9178189;19;20482;-67
2023/01/22 02:42:59;;;;;;;12.60;7.85;;;1.40;86.60;;;;;;9177436;19;20022;-67
2023/01/22 02:46:01;;;;;;;12.48;7.68;;;1.40;86.60;;;;;;9180504;19;20475;-68
2023/01/22 02:49:05;;;;;;;18.80;7.53;;;1.40;86.60;;;;;;9177436;19;20026;-66
2023/01/22 02:52:09;;;;;;;14.10;8.10;;;1.40;86.60;;;;;;9175241;19;20022;-67
2023/01/22 02:55:13;;;;;;;17.08;8.05;;;1.40;86.50;;;;;;9177471;19;20006;-67
2023/01/22 02:58:16;;;;;;;13.73;7.78;;;1.50;86.70;;;;;;9178374;19;20020;-67
2023/01/22 03:01:23;;;;;;;19.33;8.50;;;1.40;86.50;;;;;;9177703;19;20532;-67
2023/01/22 03:04:27;;;;;;;17.35;7.75;;;1.50;86.60;;;;;;9170543;19;20015;-68
2023/01/22 03:07:41;;;;;;;20.95;7.60;;;1.50;86.50;;;;;;9179019;19;20684;-67
2023/01/22 03:10:44;;;;;;;16.10;8.40;;;1.50;87.10;;;;;;9175259;19;20014;-68
2023/01/22 03:23:54;;;;;;;20.67;8.52;;;1.50;86.40;;;;;;9169494;19;20646;-67
2023/01/22 03:26:57;;;;;;;20.45;9.15;;;1.50;86.40;;;;;;9168390;19;20013;-66
2023/01/22 03:30:01;;;;;;;26.35;9.88;;;1.50;86.50;;;;;;9170649;19;20038;-67
2023/01/22 03:33:09;;;;;;;22.55;8.95;;;1.50;86.40;;;;;;9169749;19;20007;-67
2023/01/22 03:36:13;;;;;;;18.70;9.63;;;1.60;86.40;;;;;;9170449;19;20022;-67
2023/01/22 03:39:22;;;;;;;25.10;9.93;;;1.50;86.40;;;;;;9170697;19;20018;-68
2023/01/22 03:42:24;;;;;;;24.17;9.70;;;1.60;86.40;;;;;;9177706;19;20017;-66
2023/01/22 03:45:28;;;;;;;17.80;7.45;;;1.60;86.30;;;;;;9173639;19;20019;-67
2023/01/22 03:48:29;;;;;;;19.02;8.88;;;1.60;86.30;;;;;;9173285;19;20113;-66
2023/01/22 03:51:33;;;;;;;;;;;1.50;86.30;;;;;;9178587;19;20018;-67
2023/01/22 03:54:37;;;;;;;15.05;8.27;;;1.50;86.30;;;;;;9174225;19;19982;-66
2023/01/22 03:57:41;;;;;;;20.70;8.50;;;1.50;86.20;;;;;;9173920;19;20014;-66
2023/01/22 04:00:42;;;;;;;18.42;7.93;;;1.60;86.20;;;;;;9175302;19;20017;-67
2023/01/22 04:03:47;;;;;;;11.35;7.30;;;1.50;86.20;;;;;;9171831;19;20025;-67
2023/01/22 04:06:50;;;;;;;11.25;6.63;;;1.50;86.20;;;;;;9176898;19;20021;-67
2023/01/22 04:09:53;;;;;;;13.23;7.38;;;1.50;86.20;;;;;;9175655;19;20023;-67
2023/01/22 04:12:55;;;;;;;17.25;8.00;;;1.50;86.30;;;;;;9175384;19;20009;-67
2023/01/22 04:15:59;;;;;;;18.15;8.95;;;1.50;86.20;;;;;;9174536;19;20359;-67
2023/01/22 04:19:24;;;;;;;13.32;7.78;;;1.50;86.20;;;;;;9175515;19;20520;-67
2023/01/22 04:22:51;;;;;;;13.68;7.85;;;1.50;86.20;;;;;;9174672;19;20037;-67
2023/01/22 04:25:53;;;;;;;14.68;7.72;;;1.50;86.20;;;;;;9172885;19;20022;-66
2023/01/22 04:28:56;;;;;;;13.27;7.30;;;1.50;86.20;;;;;;9176088;19;20352;-67
2023/01/22 04:31:59;;;;;;;15.15;7.63;;;1.50;86.10;;;;;;9176346;19;20017;-67
2023/01/22 04:35:21;;;;;;;20.00;7.95;;;1.50;86.10;;;;;;9183969;19;20026;-67
2023/01/22 04:38:26;;;;;;;12.60;7.65;;;1.50;86.10;;;;;;9182253;19;20507;-67
2023/01/22 04:41:30;;;;;;;14.18;6.80;;;1.50;86.20;;;;;;9182322;19;20019;-66
2023/01/22 04:44:34;;;;;;;12.05;6.93;;;1.50;86.10;;;;;;9180178;19;20718;-67
2023/01/22 04:47:43;;;;;;;14.40;6.78;;;1.50;86.10;;;;;;9182923;19;20372;-67
2023/01/22 04:50:44;;;;;;;10.80;6.47;;;1.50;86.10;;;;;;9181436;19;20102;-67
2023/01/22 04:53:49;;;;;;;9.90;6.30;;;1.50;86.10;;;;;;9181442;19;20355;-66
2023/01/22 04:56:51;;;;;;;18.08;7.03;;;1.50;86.10;;;;;;9181267;19;20055;-67
2023/01/22 04:59:55;;;;;;;9.52;6.20;;;1.50;86.10;;;;;;9182954;19;20015;-67
2023/01/22 05:02:59;;;;;;;9.57;5.78;;;1.50;86.10;;;;;;9176998;19;20027;-67
2023/01/22 05:06:04;;;;;;;13.07;6.55;;;1.50;86.10;;;;;;9181456;19;20018;-67
2023/01/22 05:09:09;;;;;;;8.95;5.35;;;1.60;86.10;;;;;;9180957;19;20078;-67
2023/01/22 05:12:27;;;;;;;9.43;5.53;;;1.60;86.10;;;;;;9180927;19;20010;-67
2023/01/22 05:15:28;;;;;;;10.48;5.05;;;1.50;86.60;;;;;;9183214;19;20011;-67
2023/01/22 05:18:36;;;;;;;11.82;5.18;;;1.60;86.10;;;;;;9180579;19;20022;-67
2023/01/22 05:21:37;;;;;;;11.88;5.05;;;1.50;86.10;;;;;;9182684;19;20011;-65
2023/01/22 05:24:42;;;;;;;7.18;4.70;;;1.60;86.00;;;;;;9178766;19;20014;-67
2023/01/22 05:27:43;;;;;;;7.20;4.90;;;1.50;86.00;;;;;;9180554;19;20425;-67
2023/01/22 05:30:52;;;;;;;8.20;4.88;;;1.60;86.00;;;;;;9180118;19;20018;-67
2023/01/22 05:34:07;;;;;;;6.88;5.00;;;1.60;86.00;;;;;;9180071;19;20014;-66
2023/01/22 05:37:11;;;;;;;;;;;1.60;86.00;;;;;;9181410;19;20010;-67
2023/01/22 05:40:13;;;;;;;8.25;5.75;;;1.60;86.00;;;;;;9178893;19;19923;-67
2023/01/22 05:43:19;;;;;;;6.82;5.05;;;1.60;86.00;;;;;;9179177;19;20482;-67
2023/01/22 05:46:27;;;;;;;10.05;5.55;;;1.60;86.00;;;;;;9179810;19;20010;-67
2023/01/22 05:49:57;;;;;;;7.35;4.90;;;1.60;86.00;;;;;;9176091;19;20017;-66
2023/01/22 05:52:59;;;;;;;8.98;5.07;;;1.60;86.00;;;;;;9172237;19;20515;-67
2023/01/22 05:56:03;;;;;;;;;;;1.60;85.90;;;;;;9181574;19;20478;-67
2023/01/22 05:59:10;;;;;;;9.13;5.28;;;1.60;85.90;;;;;;9180069;19;19971;-67
2023/01/22 06:02:13;;;;;;;14.68;5.20;;;1.60;85.90;;;;;;9174988;19;20017;-66
2023/01/22 06:05:17;;;;;;;10.07;4.65;;;1.60;85.90;;;;;;9176367;19;20015;-66
2023/01/22 06:08:27;;;;;;;9.10;4.18;;;1.60;85.90;;;;;;9179474;19;20015;-67
2023/01/22 06:11:29;;;;;;;6.65;4.38;;;1.60;85.90;;;;;;9174005;19;20043;-67
2023/01/22 06:14:32;;;;;;;;;;;1.60;86.20;;;;;;9178239;19;20003;-67
2023/01/22 06:17:35;;;;;;;7.63;4.43;;;1.60;86.00;;;;;;9178058;19;19982;-67
2023/01/22 06:20:39;;;;;;;;;;;1.60;86.00;;;;;;9168055;19;20467;-67
2023/01/22 06:23:42;;;;;;;8.13;5.07;;;1.60;86.00;;;;;;9173030;19;19923;-67
2023/01/22 06:26:45;;;;;;;;;;;1.60;85.90;;;;;;9179692;19;20352;-65
2023/01/22 06:29:48;;;;;;;7.63;4.45;;;1.60;85.90;;;;;;9174286;19;19918;-66
2023/01/22 06:32:53;;;;;;;12.85;5.80;;;1.60;85.80;;;;;;9174851;19;20014;-66
2023/01/22 06:35:55;;;;;;;9.05;4.68;;;1.60;85.80;;;;;;9177727;19;20015;-66
2023/01/22 06:38:59;;;;;;;7.88;4.93;;;1.60;85.90;;;;;;9177312;19;20022;-65
2023/01/22 06:42:11;;;;;;;7.13;4.55;;;1.60;85.90;;;;;;9168596;19;20090;-66
2023/01/22 06:45:16;;;;;;;8.88;5.03;;;1.50;85.90;;;;;;9172529;19;20025;-67
2023/01/22 06:48:23;;;;;;;9.45;4.88;;;1.60;85.90;;;;;;9174015;19;20019;-65
2023/01/22 06:51:28;;;;;;;6.63;4.57;;;1.60;85.90;;;;;;9169939;19;20017;-66
2023/01/22 06:54:31;;;;;;;8.77;4.88;;;1.60;85.90;;;;;;9177323;19;20043;-67
2023/01/22 06:57:35;;;;;;;7.82;5.22;;;1.50;85.90;;;;;;9177577;19;20643;-67
2023/01/22 07:00:37;;;;;;;7.18;4.85;;;1.50;85.90;;;;;;9178921;19;20026;-66
2023/01/22 07:03:41;;;;;;;7.30;4.90;;;1.60;86.00;;;;;;9173835;19;20014;-66
2023/01/22 07:06:43;;;;;;;11.68;5.15;;;1.60;85.90;;;;;;9178862;19;20015;-66
2023/01/22 07:09:46;;;;;;;;;;;1.60;85.90;;;;;;9177649;19;20026;-66
2023/01/22 07:12:53;;;;;;;10.38;4.72;;;1.60;85.90;;;;;;9176936;19;19968;-66
2023/01/22 07:16:01;;;;;;;6.93;5.20;;;1.60;85.90;;;;;;9177095;19;20021;-67
2023/01/22 07:19:03;;;;;;;11.35;5.63;;;1.60;85.90;;;;;;9177214;19;20014;-67
2023/01/22 07:22:06;;;;;;;;;;;1.60;86.00;;;;;;9178797;19;20010;-67
2023/01/22 07:25:08;;;;;;;9.75;5.35;;;1.60;86.00;;;;;;9175948;19;19928;-67
2023/01/22 07:28:13;;;;;;;9.32;5.32;;;1.60;85.90;;;;;;9176073;19;20025;-67
2023/01/22 07:31:15;;;;;;;9.85;5.53;;;1.60;85.90;;;;;;9178403;19;20018;-67
2023/01/22 07:34:19;;;;;;;7.15;5.00;;;1.60;85.90;;;;;;9173662;19;20018;-66
2023/01/22 07:37:20;;;;;;;12.60;5.38;;;1.60;86.00;;;;;;9177879;19;20013;-67
2023/01/22 07:40:25;;;;;;;10.93;5.80;;;1.60;86.00;;;;;;9178514;19;20037;-66
2023/01/22 07:43:27;;;;;;;12.20;5.72;;;1.70;86.00;;;;;;9177615;19;20011;-66
2023/01/22 07:46:30;;;;;;;;;;;1.70;86.10;;;;;;9178887;19;20022;-66
2023/01/22 07:49:32;;;;;;;8.88;5.50;;;1.70;86.00;;;;;;9176522;19;19955;-66
2023/01/22 07:52:35;;;;;;;11.32;5.82;;;1.70;86.00;;;;;;9175831;19;20018;-67
2023/01/22 07:55:37;;;;;;;6.57;5.07;;;1.70;86.00;;;;;;9177180;19;20463;-66
2023/01/22 07:58:41;;;;;;;7.88;5.07;;;1.70;85.90;;;;;;9177771;19;20014;-66
2023/01/22 08:01:42;;;;;;;8.30;4.85;;;1.70;86.00;;;;;;9176528;19;20014;-66
2023/01/22 08:04:46;;;;;;;;;;;1.70;86.00;;;;;;9169887;19;20018;-66
2023/01/22 08:07:47;;;;;;;9.75;5.47;;;1.70;86.00;;;;;;9180308;19;19918;-66
2023/01/22 08:10:51;;;;;;;14.80;5.50;;;1.70;85.90;;;;;;9183413;19;20054;-65
2023/01/22 08:13:53;;;;;;;9.77;5.10;;;1.70;85.90;;;;;;9185030;19;20021;-66
2023/01/22 08:16:57;;;;;;;18.52;6.80;;;1.70;86.00;;;;;;9184905;19;20023;-67
2023/01/22 08:19:58;;;;;;;13.52;6.10;;;1.80;86.00;;;;;;9184652;19;20509;-66
2023/01/22 08:23:02;;;;;;;10.00;5.57;;;1.80;86.00;;;;;;9185835;19;20063;-67
2023/01/22 08:26:04;;;;;;;10.70;5.43;;;1.80;86.00;;;;;;9180658;19;20010;-66
2023/01/22 08:29:07;;;;;;;13.50;4.97;;;1.80;86.00;;;;;;9182971;19;20018;-67
2023/01/22 08:32:09;;;;;;;6.78;4.93;;;1.80;85.90;;;;;;9184216;19;20038;-67
2023/01/22 08:35:12;;;;;;;;;;;1.80;86.00;;;;;;9184867;19;20022;-67
2023/01/22 08:38:14;;;;;;;8.82;5.10;;;1.90;86.10;;;;;;9185260;19;19927;-67
2023/01/22 08:41:17;;;;;;;;;;;1.80;85.90;;;;;;9184690;19;20014;-66
2023/01/22 08:44:19;;;;;;;9.30;5.18;;;1.90;85.90;;;;;;9183144;19;19922;-67
2023/01/22 08:47:23;;;;;;;12.18;5.55;;;1.90;86.00;;;;;;9183953;19;20018;-67
2023/01/22 08:50:26;;;;;;;10.75;5.60;;;1.90;86.00;;;;;;9181923;19;20018;-67
2023/01/22 08:53:29;;;;;;;12.85;5.53;;;1.90;86.00;;;;;;9184181;19;20019;-67
2023/01/22 08:56:31;;;;;;;9.13;6.03;;;1.90;86.10;;;;;;9183773;19;20022;-67
2023/01/22 08:59:34;;;;;;;11.80;6.53;;;1.90;86.00;;;;;;9183227;19;20019;-66
2023/01/22 09:02:36;;;;;;;9.32;6.22;;;1.90;86.10;;;;;;9178871;19;20018;-66
2023/01/22 09:05:40;;;;;;;13.15;5.60;;;2.00;86.00;;;;;;9179244;19;20017;-67
2023/01/22 09:08:41;;;;;;;11.65;5.47;;;2.00;86.10;;;;;;9183311;19;20032;-67
2023/01/22 09:11:45;;;;;;;;;;;1.90;86.00;;;;;;9180916;19;20015;-67
2023/01/22 09:14:47;;;;;;;11.40;5.72;;;2.00;86.00;;;;;;9180083;19;19918;-66
2023/01/22 09:17:50;;;;;;;8.95;5.70;;;2.00;85.90;;;;;;9171841;19;20597;-67
2023/01/22 09:20:52;;;;;;;9.68;5.72;;;2.00;85.90;;;;;;9176650;19;20030;-66
2023/01/22 09:23:55;;;;;;;10.25;5.90;;;2.00;86.00;;;;;;9176711;19;20046;-67
2023/01/22 09:26:57;;;;;;;11.60;5.90;;;2.00;86.00;;;;;;9172860;19;20025;-67
2023/01/22 09:30:01;;;;;;;9.82;6.40;;;2.00;86.00;;;;;;9175876;19;20026;-66
2023/01/22 09:33:02;;;;;;;12.00;6.35;;;2.00;86.00;;;;;;9174546;19;20026;-66
2023/01/22 09:36:14;;;;;;;14.00;6.57;;;2.00;86.00;;;;;;9173759;19;20495;-66
2023/01/22 09:39:15;;;;;;;11.45;6.10;;;2.10;86.10;;;;;;9175072;19;20015;-66
2023/01/22 09:42:39;;;;;;;10.20;6.13;;;2.10;86.00;;;;;;9175739;19;20027;-68
2023/01/22 09:45:41;;;;;;;10.75;5.97;;;2.10;86.00;;;;;;9173118;19;20018;-68
2023/01/22 09:48:49;;;;;;;11.98;6.55;;;2.10;86.00;;;;;;9172665;19;20450;-67
2023/01/22 09:51:58;;;;;;;10.13;6.25;;;2.10;86.00;;;;;;9175013;19;20043;-67
2023/01/22 09:55:01;;;;;;;15.18;6.30;;;2.10;86.00;;;;;;9176047;19;20029;-65
2023/01/22 09:58:11;;;;;;;13.43;6.00;;;2.10;86.00;;;;;;9175734;19;20017;-66
2023/01/22 10:01:16;;;;;;;13.75;6.45;;;2.10;86.00;;;;;;9175124;19;20605;-66
2023/01/22 10:04:39;;;;;;;13.45;6.80;;;2.10;86.00;;;;;;9169117;19;20387;-66
2023/01/22 10:07:49;;;;;;;10.60;6.70;;;2.10;86.00;;;;;;9172897;19;20033;-66
2023/01/22 10:10:51;;;;;;;10.63;6.15;;;2.10;86.00;;;;;;9171878;19;20038;-68
2023/01/22 10:13:58;;;;;;;12.40;6.80;;;2.20;86.10;;;;;;9173521;19;20018;-68
2023/01/22 10:17:02;;;;;;;10.32;6.43;;;2.20;86.10;;;;;;9170615;19;20014;-68
2023/01/22 10:20:09;;;;;;;8.73;6.30;;;2.20;86.10;;;;;;9174292;19;20503;-67
2023/01/22 10:23:22;;;;;;;13.20;7.03;;;2.20;86.00;;;;;;9171013;19;20018;-67
2023/01/22 10:26:39;;;;;;;13.80;7.05;;;2.20;86.10;;;;;;9170565;19;20021;-67
2023/01/22 10:29:45;;;;;;;13.77;8.20;;;2.30;86.10;;;;;;9170015;19;20479;-67
2023/01/22 10:33:03;;;;;;;10.70;6.57;;;2.30;86.10;;;;;;9173810;19;20352;-68
2023/01/22 10:36:06;;;;;;;15.60;7.28;;;2.30;86.00;;;;;;9169403;19;20351;-68
2023/01/22 10:39:12;;;;;;;13.90;6.90;;;2.30;86.10;;;;;;9174033;19;20018;-67
2023/01/22 10:42:24;;;;;;;11.95;6.32;;;2.30;86.00;;;;;;9167074;19;20019;-65
2023/01/22 10:45:27;;;;;;;15.45;7.03;;;2.30;86.00;;;;;;9167919;19;20011;-66
2023/01/22 10:48:29;;;;;;;11.80;6.65;;;2.30;86.00;;;;;;9168674;19;20383;-67
2023/01/22 10:51:38;;;;;;;;;;;2.30;86.00;;;;;;9166418;19;20026;-68
2023/01/22 10:54:45;;;;;;;11.13;6.88;;;2.30;86.00;;;;;;9172199;19;19927;-66
2023/01/22 10:57:57;;;;;;;14.75;7.65;;;2.40;86.00;;;;;;9170036;19;20018;-66
2023/01/22 11:01:05;;;;;;;11.75;7.10;;;2.40;86.00;;;;;;9172668;19;20441;-66
2023/01/22 11:04:18;;;;;;;12.35;7.00;;;2.40;86.00;;;;;;9161470;19;20018;-66
2023/01/22 11:07:26;;;;;;;14.68;7.28;;;2.40;86.10;;;;;;9171495;19;20487;-68
2023/01/22 11:10:56;;;;;;;11.43;7.18;;;2.40;86.10;;;;;;9167443;19;20010;-67
2023/01/22 11:14:02;;;;;;;11.10;6.75;;;2.40;86.00;;;;;;9168507;19;20013;-68
2023/01/22 11:17:19;;;;;;;15.88;7.35;;;2.40;86.00;;;;;;9176687;19;20019;-68
2023/01/22 11:20:52;;;;;;;20.45;8.15;;;2.40;86.00;;;;;;9178594;19;20048;-68
2023/01/22 11:24:08;;;;;;;25.35;9.00;;;2.50;86.10;;;;;;9174014;19;20531;-67
2023/01/22 11:27:36;;;;;;;13.57;7.88;;;2.50;86.00;;;;;;9176074;19;20463;-67
2023/01/22 11:31:02;;;;;;;12.95;7.70;;;2.50;86.00;;;;;;9178329;19;20015;-67
2023/01/22 11:34:30;;;;;;;13.57;8.30;;;2.50;86.00;;;;;;9173344;19;20014;-67
2023/01/22 11:38:09;;;;;;;20.20;8.45;;;2.60;86.10;;;;;;9172848;19;20018;-66
2023/01/22 11:41:28;;;;;;;21.55;8.50;;;2.60;86.10;;;;;;9169612;19;20471;-67
2023/01/22 11:45:03;;;;;;;20.48;9.15;;;2.60;86.10;;;;;;9172474;19;20023;-67
2023/01/22 11:48:17;;;;;;;17.10;8.45;;;2.60;86.10;;;;;;9172190;19;20026;-67
2023/01/22 11:51:42;;;;;;;12.88;7.78;;;2.60;86.10;;;;;;9174110;19;20033;-67
2023/01/22 11:55:12;;;;;;;17.15;7.72;;;2.70;86.10;;;;;;9177943;19;20597;-67
2023/01/22 11:58:50;;;;;;;15.50;7.80;;;2.70;86.10;;;;;;9177779;19;20018;-67
2023/01/22 12:02:29;;;;;;;15.85;8.05;;;2.70;86.00;;;;;;9177634;19;20012;-67
2023/01/22 12:05:58;;;;;;;14.93;8.65;;;2.70;86.00;;;;;;9175072;19;20021;-67
2023/01/22 12:09:06;;;;;;;18.05;8.40;;;2.70;86.00;;;;;;9177699;19;20006;-68
2023/01/22 12:12:27;;;;;;;20.67;10.38;;;2.70;86.00;;;;;;9173104;19;20023;-67
2023/01/22 12:15:46;;;;;;;18.25;8.10;;;2.80;86.10;;;;;;9173590;19;20018;-67
2023/01/22 12:18:49;;;;;;;13.70;7.13;;;2.80;86.10;;;;;;9176907;19;20023;-67
2023/01/22 12:22:21;;;;;;;12.48;7.80;;;2.80;86.10;;;;;;9176496;19;20022;-68
2023/01/22 12:25:47;;;;;;;16.13;8.48;;;2.80;86.10;;;;;;9172242;19;20021;-66
2023/01/22 12:29:19;;;;;;;12.70;7.27;;;2.80;86.10;;;;;;9176666;19;20493;-67
2023/01/22 12:32:25;;;;;;;20.55;7.70;;;2.90;86.10;;;;;;9175876;19;20018;-67
2023/01/22 12:35:30;;;;;;;13.40;7.28;;;2.90;86.10;;;;;;9177178;19;20026;-67
2023/01/22 12:38:48;;;;;;;12.43;6.80;;;2.90;86.00;;;;;;9176099;19;20015;-67
2023/01/22 12:42:11;;;;;;;15.00;7.57;;;2.90;86.00;;;;;;9176190;19;20018;-67
2023/01/22 12:45:36;;;;;;;15.68;7.68;;;2.90;86.00;;;;;;9175221;19;20007;-68
2023/01/22 12:49:04;;;;;;;14.45;7.35;;;3.00;86.00;;;;;;9176357;19;20014;-67
2023/01/22 12:52:27;;;;;;;14.60;7.80;;;3.00;86.10;;;;;;9175180;19;20011;-67
2023/01/22 12:55:29;;;;;;;13.77;7.72;;;3.00;86.00;;;;;;9183542;19;20018;-68
2023/01/22 12:58:34;;;;;;;;;;;3.00;86.00;;;;;;9185430;19;20017;-67
2023/01/22 13:01:36;;;;;;;15.57;7.87;;;3.00;86.00;;;;;;9184013;19;19982;-66
2023/01/22 13:04:40;;;;;;;;;;;3.00;86.00;;;;;;9177773;19;20496;-67
2023/01/22 13:07:41;;;;;;;13.68;7.45;;;3.00;85.90;;;;;;9184512;19;19923;-67
2023/01/22 13:10:51;;;;;;;;;;;3.00;85.90;;;;;;9182828;19;20014;-66
2023/01/22 13:14:17;;;;;;;12.05;7.28;;;3.00;85.90;;;;;;9182928;19;19925;-66
2023/01/22 13:17:29;;;;;;;17.08;7.50;;;3.00;85.90;;;;;;9182876;19;20014;-67
2023/01/22 13:20:45;;;;;;;14.32;7.70;;;3.00;86.00;;;;;;9181332;19;20014;-67
2023/01/22 13:23:49;;;;;;;12.82;7.70;;;3.00;86.00;;;;;;9182799;19;20014;-66
2023/01/22 13:26:53;;;;;;;12.38;7.55;;;3.10;86.00;;;;;;9180073;19;20029;-66
2023/01/22 13:30:18;;;;;;;17.00;7.65;;;3.10;86.00;;;;;;9182941;19;20018;-67
2023/01/22 13:33:20;;;;;;;10.57;6.30;;;3.10;86.00;;;;;;9182629;19;20014;-67
2023/01/22 13:36:24;;;;;;;17.67;7.88;;;3.10;86.00;;;;;;9181939;19;20030;-67
2023/01/22 13:39:31;;;;;;;14.13;8.07;;;3.10;85.90;;;;;;9182518;19;20033;-66
2023/01/22 13:42:35;;;;;;;11.70;7.50;;;3.10;86.00;;;;;;9182559;19;20482;-67
2023/01/22 13:45:39;;;;;;;18.27;7.78;;;3.10;86.00;;;;;;9180656;19;20041;-66
2023/01/22 13:48:42;;;;;;;14.38;7.93;;;3.10;85.90;;;;;;9182493;19;20017;-67
2023/01/22 13:51:45;;;;;;;12.45;7.30;;;3.10;86.00;;;;;;9182415;19;20018;-67
2023/01/22 13:55:10;;;;;;;14.00;7.80;;;3.10;85.90;;;;;;9181387;19;20007;-66
2023/01/22 13:58:32;;;;;;;14.60;7.82;;;3.10;85.90;;;;;;9181516;19;20014;-67
2023/01/22 14:01:50;;;;;;;14.57;7.47;;;3.10;85.90;;;;;;9179929;19;20019;-67
2023/01/22 14:04:52;;;;;;;13.25;7.68;;;3.10;85.90;;;;;;9173334;19;20262;-67
2023/01/22 14:08:23;;;;;;;14.55;7.93;;;3.10;85.90;;;;;;9178977;19;20015;-67
2023/01/22 14:11:36;;;;;;;16.00;7.75;;;3.10;85.90;;;;;;9178492;19;20011;-67
2023/01/22 14:14:40;;;;;;;14.63;8.13;;;3.10;85.90;;;;;;9181539;19;20395;-67
2023/01/22 14:17:42;;;;;;;13.40;8.10;;;3.10;86.00;;;;;;9180883;19;20021;-67
2023/01/22 14:20:46;;;;;;;12.50;7.32;;;3.10;85.90;;;;;;9180595;19;20015;-67
2023/01/22 14:23:48;;;;;;;15.75;7.65;;;3.10;85.90;;;;;;9180436;19;20018;-67
2023/01/22 14:26:51;;;;;;;13.40;7.30;;;3.10;86.00;;;;;;9175620;19;20018;-67
2023/01/22 14:29:54;;;;;;;12.90;7.60;;;3.10;85.90;;;;;;9182044;19;20014;-67
2023/01/22 14:32:57;;;;;;;14.57;7.40;;;3.10;85.90;;;;;;9180843;19;20022;-67
2023/01/22 14:35:59;;;;;;;16.23;7.93;;;3.10;86.00;;;;;;9178742;19;20015;-67
2023/01/22 14:39:03;;;;;;;18.17;7.95;;;3.10;85.90;;;;;;9180252;19;20029;-67
2023/01/22 14:42:08;;;;;;;10.98;6.78;;;3.10;86.00;;;;;;9178084;19;20475;-67
2023/01/22 14:45:12;;;;;;;;;;;3.10;86.00;;;;;;9178778;19;20360;-67
2023/01/22 14:48:15;;;;;;;42.30;9.68;;;3.10;86.20;;;;;;9179797;19;19917;-68
2023/01/22 14:51:19;;;;;;;14.07;6.82;;;3.10;86.20;;;;;;9179930;19;20019;-67
2023/01/22 14:54:20;;;;;;;20.00;7.22;;;3.10;86.10;;;;;;9179661;19;20340;-67
2023/01/22 14:57:24;;;;;;;12.60;7.60;;;3.10;86.30;;;;;;9179227;19;20569;-67
2023/01/22 15:00:27;;;;;;;16.88;6.85;;;3.10;86.70;;;;;;9179392;19;20018;-66
2023/01/22 15:03:31;;;;;;;36.20;8.02;;;3.10;87.20;;;;;;9173130;19;20010;-66
2023/01/22 15:06:33;;;;;;;19.63;6.70;;;3.10;87.50;;;;;;9176258;19;20417;-65
2023/01/22 15:09:37;;;;;;;10.43;6.63;;;3.10;88.00;;;;;;9178387;19;20021;-69
2023/01/22 15:12:38;;;;;;;15.20;7.05;;;3.20;88.70;;;;;;9179419;19;20010;-68
2023/01/22 15:15:42;;;;;;;13.18;6.68;;;3.20;92.50;;;;;;9178072;19;20010;-68
2023/01/22 15:18:44;;;;;;;14.77;7.25;;;3.00;85.30;;;;;;9179323;19;20034;-68
2023/01/22 15:21:48;;;;;;;16.15;7.85;;;3.10;85.90;;;;;;9178809;19;20364;-68
2023/01/22 15:24:49;;;;;;;14.68;7.75;;;3.00;85.80;;;;;;9177540;19;20077;-66
2023/01/22 15:27:53;;;;;;;14.95;6.70;;;3.00;85.80;;;;;;9178023;19;20014;-66
2023/01/22 15:30:57;;;;;;;16.23;7.70;;;3.00;85.90;;;;;;9178889;19;20656;-67
2023/01/22 15:34:02;;;;;;;16.40;7.68;;;3.10;85.90;;;;;;9178979;19;20014;-67
2023/01/22 15:37:04;;;;;;;12.50;7.07;;;3.10;85.90;;;;;;9176218;19;20014;-66
2023/01/22 15:40:09;;;;;;;17.60;7.43;;;3.10;86.00;;;;;;9178061;19;20021;-67
2023/01/22 15:43:10;;;;;;;15.73;7.82;;;3.10;85.90;;;;;;9177727;19;20034;-67
2023/01/22 15:46:14;;;;;;;14.18;8.02;;;3.10;85.90;;;;;;9175341;19;20467;-67
2023/01/22 15:49:16;;;;;;;14.98;8.48;;;3.00;85.90;;;;;;9178447;19;20337;-67
2023/01/22 15:52:20;;;;;;;15.85;7.70;;;3.10;86.00;;;;;;9177365;19;20046;-66
2023/01/22 15:55:22;;;;;;;15.38;7.40;;;3.10;86.00;;;;;;9176137;19;20022;-68
2023/01/22 15:58:25;;;;;;;14.73;7.53;;;3.10;86.00;;;;;;9177190;19;20349;-68
2023/01/22 16:01:27;;;;;;;18.77;7.80;;;3.10;86.00;;;;;;9174022;19;20053;-67
2023/01/22 16:04:30;;;;;;;21.23;8.77;;;3.10;86.00;;;;;;9172205;19;20014;-67
2023/01/22 16:07:32;;;;;;;17.58;8.35;;;3.10;86.00;;;;;;9176853;19;20510;-67
2023/01/22 16:10:35;;;;;;;17.88;8.82;;;3.10;86.00;;;;;;9174558;19;20019;-67
2023/01/22 16:13:37;;;;;;;17.58;8.85;;;3.10;85.90;;;;;;9177440;19;20033;-66
2023/01/22 16:16:41;;;;;;;17.08;8.93;;;3.10;85.90;;;;;;9176437;19;20461;-68
2023/01/22 16:19:42;;;;;;;21.80;9.02;;;3.10;85.90;;;;;;9176748;19;20090;-66
2023/01/22 16:22:46;;;;;;;;;;;3.10;85.90;;;;;;9176935;19;20018;-68
2023/01/22 16:25:47;;;;;;;16.63;8.25;;;3.10;86.00;;;;;;9174730;19;19923;-68
2023/01/22 16:28:53;;;;;;;17.65;8.27;;;3.20;85.90;;;;;;9181324;19;20335;-67